Aviation Digital Data Service (ADDS)

Output produced by METARs form (1707 UTC 19 January 2017)
found at http://aviationweather.gov/adds/metars/
 
KLCH 191515Z 1915/2012 20007KT 4SM -RA SCT007 BKN012 
     TEMPO 1915/1919 2SM +SHRA OVC007 
     FM192300 21007KT 6SM BR VCSH OVC015 
     FM200300 20004KT 2SM BR OVC007